createdAt,value
2024-03-07T00:00:30.314Z,102723.94
2024-03-07T00:02:59.889Z,102721.28
2024-03-07T00:05:28.769Z,102717.88
2024-03-07T00:07:57.080Z,102717.03
2024-03-07T00:10:26.790Z,102710.16
2024-03-07T00:12:55.257Z,102722.31
2024-03-07T00:15:23.593Z,102719.75
2024-03-07T00:17:52.023Z,102719.78
2024-03-07T00:20:21.336Z,102718.97
2024-03-07T00:22:50.606Z,102731.97
2024-03-07T00:25:21.199Z,102730.28
2024-03-07T00:27:54.311Z,102721.66
2024-03-07T00:30:22.925Z,102722.59
2024-03-07T00:32:51.368Z,102724.34
2024-03-07T00:35:21.850Z,102719.16
2024-03-07T00:37:50.715Z,102715.81
2024-03-07T00:40:19.350Z,102711.53
2024-03-07T00:42:47.821Z,102706.34
2024-03-07T00:45:16.042Z,102707.19
2024-03-07T00:47:44.479Z,102700.28
2024-03-07T00:50:12.846Z,102704.69
2024-03-07T00:52:41.672Z,102705.53
2024-03-07T00:55:11.333Z,102701.19
2024-03-07T00:57:39.424Z,102709.03
2024-03-07T01:00:12.962Z,102705.59
2024-03-07T01:02:44.716Z,102696.97
2024-03-07T01:05:14.926Z,102706.53
2024-03-07T01:07:44.463Z,102703.03
2024-03-07T01:10:12.831Z,102703.97
2024-03-07T01:12:41.651Z,102704.84
2024-03-07T01:15:11.668Z,102704.84
2024-03-07T01:17:40.045Z,102707.50
2024-03-07T01:20:12.867Z,102715.31
2024-03-07T01:22:40.958Z,102703.19
2024-03-07T01:25:09.197Z,102705.81
2024-03-07T01:27:37.549Z,102700.59
2024-03-07T01:30:09.244Z,102703.25
2024-03-07T01:32:37.418Z,102698.09
2024-03-07T01:35:07.889Z,102692.88
2024-03-07T01:37:36.529Z,102689.41
2024-03-07T01:40:06.579Z,102695.47
2024-03-07T01:42:34.872Z,102682.50
2024-03-07T01:45:03.443Z,102685.09
2024-03-07T01:47:31.896Z,102681.66
2024-03-07T01:50:00.985Z,102673.84
2024-03-07T01:52:28.999Z,102679.03
2024-03-07T01:54:57.360Z,102683.38
2024-03-07T01:57:26.243Z,102679.06
2024-03-07T01:59:54.746Z,102680.75
2024-03-07T02:02:24.947Z,102679.91
2024-03-07T02:04:53.462Z,102679.06
2024-03-07T02:07:21.560Z,102663.47
2024-03-07T02:09:49.529Z,102668.66
2024-03-07T02:12:17.609Z,102667.81
2024-03-07T02:14:45.662Z,102672.13
2024-03-07T02:17:13.677Z,102672.13
2024-03-07T02:19:41.836Z,102666.94
2024-03-07T02:22:09.938Z,102663.50
2024-03-07T02:24:38.267Z,102671.28
2024-03-07T02:27:06.347Z,102670.44
2024-03-07T02:29:34.996Z,102662.63
2024-03-07T02:32:03.810Z,102660.03
2024-03-07T02:34:32.739Z,102660.03
2024-03-07T02:37:00.816Z,102655.72
2024-03-07T02:39:29.356Z,102653.13
2024-03-07T02:41:58.478Z,102645.31
2024-03-07T02:44:26.911Z,102646.19
2024-03-07T02:46:55.845Z,102651.41
2024-03-07T02:49:24.437Z,102643.56
2024-03-07T02:51:52.856Z,102639.22
2024-03-07T02:54:21.528Z,102636.59
2024-03-07T02:56:49.634Z,102621.00
2024-03-07T02:59:19.500Z,102634.88
2024-03-07T03:01:47.808Z,102634.00
2024-03-07T03:04:16.018Z,102634.00
2024-03-07T03:06:44.222Z,102629.69
2024-03-07T03:09:18.419Z,102628.81
2024-03-07T03:11:47.343Z,102628.81
2024-03-07T03:14:16.075Z,102627.06
2024-03-07T03:16:48.565Z,102620.97
2024-03-07T03:19:17.905Z,102614.91
2024-03-07T03:21:48.001Z,102609.72
2024-03-07T03:24:16.671Z,102610.56
2024-03-07T03:26:44.864Z,102608.81
2024-03-07T03:29:17.127Z,102614.88
2024-03-07T03:31:45.847Z,102608.81
2024-03-07T03:34:14.005Z,102609.69
2024-03-07T03:36:44.680Z,102604.50
2024-03-07T03:39:14.809Z,102601.88
2024-03-07T03:41:44.282Z,102599.28
2024-03-07T03:44:12.829Z,102592.34
2024-03-07T03:46:42.808Z,102597.53
2024-03-07T03:49:11.557Z,102597.53
2024-03-07T03:51:39.789Z,102599.25
2024-03-07T03:54:08.059Z,102605.31
2024-03-07T03:56:36.383Z,102599.25
2024-03-07T03:59:05.792Z,102594.06
2024-03-07T04:01:37.029Z,102597.47
2024-03-07T04:04:06.756Z,102598.34
2024-03-07T04:06:34.798Z,102598.31
2024-03-07T04:09:03.425Z,102596.56
2024-03-07T04:11:32.005Z,102603.47
2024-03-07T04:14:00.486Z,102592.22
2024-03-07T04:16:28.483Z,102597.44
2024-03-07T04:18:56.516Z,102603.47
2024-03-07T04:21:26.896Z,102595.66
2024-03-07T04:23:55.191Z,102598.22
2024-03-07T04:26:24.875Z,102599.09
2024-03-07T04:28:53.293Z,102591.19
2024-03-07T04:31:21.909Z,102585.09
2024-03-07T04:33:50.376Z,102592.03
2024-03-07T04:36:19.163Z,102582.44
2024-03-07T04:38:47.618Z,102583.28
2024-03-07T04:41:16.379Z,102575.41
2024-03-07T04:43:44.917Z,102578.84
2024-03-07T04:46:13.829Z,102578.78
2024-03-07T04:48:42.462Z,102584.75
2024-03-07T04:51:10.859Z,102574.34
2024-03-07T04:53:43.367Z,102578.56
2024-03-07T04:56:11.979Z,102580.22
2024-03-07T04:58:41.053Z,102580.16
2024-03-07T05:01:09.451Z,102582.69
2024-03-07T05:03:38.231Z,102582.69
2024-03-07T05:06:06.629Z,102576.56
2024-03-07T05:08:34.929Z,102576.50
2024-03-07T05:11:03.506Z,102578.16
2024-03-07T05:13:32.750Z,102585.88
2024-03-07T05:16:02.278Z,102594.50
2024-03-07T05:18:30.796Z,102593.59
2024-03-07T05:21:10.068Z,102593.56
2024-03-07T05:23:38.451Z,102598.69
2024-03-07T05:26:07.694Z,102597.81
2024-03-07T05:28:35.876Z,102596.91
2024-03-07T05:31:12.573Z,102603.84
2024-03-07T05:33:41.901Z,102600.38
2024-03-07T05:36:16.369Z,102596.03
2024-03-07T05:38:46.159Z,102597.75
2024-03-07T05:41:15.414Z,102597.78
2024-03-07T05:43:45.886Z,102596.06
2024-03-07T05:46:13.935Z,102594.28
2024-03-07T05:48:42.206Z,102595.94
2024-03-07T05:51:11.377Z,102607.19
2024-03-07T05:53:40.131Z,102612.38
2024-03-07T05:56:09.422Z,102614.03
2024-03-07T05:58:37.483Z,102621.81
2024-03-07T06:01:05.709Z,102624.47
2024-03-07T06:03:33.953Z,102625.31
2024-03-07T06:06:02.055Z,102630.59
2024-03-07T06:08:30.323Z,102635.00
2024-03-07T06:10:59.369Z,102637.53
2024-03-07T06:13:27.704Z,102631.53
2024-03-07T06:15:56.112Z,102635.03
2024-03-07T06:18:24.221Z,102638.53
2024-03-07T06:20:52.518Z,102630.72
2024-03-07T06:23:22.792Z,102618.56
2024-03-07T06:25:53.488Z,102631.63
2024-03-07T06:28:22.136Z,102627.31
2024-03-07T06:30:50.356Z,102629.09
2024-03-07T06:33:22.046Z,102632.59
2024-03-07T06:35:53.196Z,102629.16
2024-03-07T06:38:23.035Z,102630.94
2024-03-07T06:40:51.267Z,102624.88
2024-03-07T06:43:19.919Z,102625.72
2024-03-07T06:45:48.285Z,102620.56
2024-03-07T06:48:16.729Z,102614.53
2024-03-07T06:50:46.189Z,102621.41
2024-03-07T06:53:14.336Z,102616.16
2024-03-07T06:55:42.646Z,102615.38
2024-03-07T06:58:11.716Z,102617.97
2024-03-07T07:00:41.411Z,102618.03
2024-03-07T07:03:09.860Z,102624.09
2024-03-07T07:05:39.542Z,102617.25
2024-03-07T07:08:08.232Z,102623.41
2024-03-07T07:10:37.441Z,102625.13
2024-03-07T07:13:06.251Z,102620.91
2024-03-07T07:15:35.952Z,102624.41
2024-03-07T07:18:04.673Z,102629.63
2024-03-07T07:20:35.719Z,102625.34
2024-03-07T07:23:05.120Z,102621.88
2024-03-07T07:25:34.445Z,102615.00
2024-03-07T07:28:06.404Z,102604.56
2024-03-07T07:30:37.226Z,102601.16
2024-03-07T07:33:07.036Z,102588.09
2024-03-07T07:35:35.862Z,102575.19
2024-03-07T07:38:04.152Z,102586.41
2024-03-07T07:40:34.317Z,102582.13
2024-03-07T07:43:03.958Z,102582.16
2024-03-07T07:45:34.149Z,102580.50
2024-03-07T07:48:04.050Z,102581.44
2024-03-07T07:50:36.164Z,102570.09
2024-03-07T07:53:08.576Z,102565.75
2024-03-07T07:55:37.059Z,102566.56
2024-03-07T07:58:05.596Z,102567.38
2024-03-07T08:00:36.206Z,102575.22
2024-03-07T08:03:08.628Z,102571.78
2024-03-07T08:05:38.353Z,102575.31
2024-03-07T08:08:09.747Z,102575.44
2024-03-07T08:10:41.848Z,102583.34
2024-03-07T08:13:12.212Z,102573.00
2024-03-07T08:15:40.138Z,102567.81
2024-03-07T08:18:10.828Z,102560.03
2024-03-07T08:20:40.523Z,102562.63
2024-03-07T08:23:10.004Z,102556.53
2024-03-07T08:25:40.799Z,102560.06
2024-03-07T08:28:10.883Z,102554.06
2024-03-07T08:30:39.141Z,102557.59
2024-03-07T08:33:09.007Z,102548.03
2024-03-07T08:35:37.187Z,102542.81
2024-03-07T08:38:06.404Z,102548.94
2024-03-07T08:40:35.686Z,102538.50
2024-03-07T08:43:06.614Z,102540.25
2024-03-07T08:45:36.075Z,102542.88
2024-03-07T08:48:07.017Z,102536.81
2024-03-07T08:50:36.618Z,102541.13
2024-03-07T08:53:06.054Z,102543.81
2024-03-07T08:55:36.994Z,102538.59
2024-03-07T08:58:07.603Z,102534.25
2024-03-07T09:00:39.102Z,102536.00
2024-03-07T09:03:13.053Z,102537.72
2024-03-07T09:05:43.521Z,102532.50
2024-03-07T09:08:12.043Z,102531.66
2024-03-07T09:10:45.403Z,102527.34
2024-03-07T09:13:13.753Z,102522.97
2024-03-07T09:15:42.185Z,102522.13
2024-03-07T09:18:10.605Z,102528.22
2024-03-07T09:20:40.514Z,102528.25
2024-03-07T09:23:09.556Z,102531.72
2024-03-07T09:25:38.228Z,102527.38
2024-03-07T09:28:07.518Z,102530.81
2024-03-07T09:30:39.308Z,102519.53
2024-03-07T09:33:12.401Z,102516.00
2024-03-07T09:35:41.389Z,102497.75
2024-03-07T09:38:09.959Z,102501.22
2024-03-07T09:40:38.025Z,102506.50
2024-03-07T09:43:11.845Z,102518.69
2024-03-07T09:45:40.900Z,102500.38
2024-03-07T09:48:11.055Z,102505.63
2024-03-07T09:50:39.823Z,102502.13
2024-03-07T09:53:11.964Z,102510.78
2024-03-07T09:55:40.198Z,102505.56
2024-03-07T09:58:10.481Z,102502.88
2024-03-07T10:00:41.523Z,102498.53
2024-03-07T10:03:15.164Z,102487.13
2024-03-07T10:05:44.061Z,102505.38
2024-03-07T10:08:14.176Z,102499.28
2024-03-07T10:10:42.953Z,102498.41
2024-03-07T10:13:11.639Z,102492.34
2024-03-07T10:15:41.090Z,102503.63
2024-03-07T10:18:15.580Z,102503.72
2024-03-07T10:20:46.426Z,102514.16
2024-03-07T10:23:15.305Z,102515.03
2024-03-07T10:25:44.133Z,102505.50
2024-03-07T10:28:13.393Z,102530.75
2024-03-07T10:30:47.005Z,102535.97
2024-03-07T10:33:16.638Z,102536.00
2024-03-07T10:35:44.960Z,102538.56
2024-03-07T10:38:15.562Z,102529.88
2024-03-07T10:40:44.535Z,102534.25
2024-03-07T10:43:16.987Z,102546.44
2024-03-07T10:45:57.298Z,102551.66
2024-03-07T10:48:31.931Z,102546.44
2024-03-07T10:51:22.131Z,102545.59
2024-03-07T10:54:07.166Z,102545.59
2024-03-07T10:56:48.118Z,102543.84
2024-03-07T10:59:22.495Z,102538.63
2024-03-07T11:02:59.359Z,102553.41
2024-03-07T11:05:30.777Z,102540.38
2024-03-07T11:08:08.324Z,102535.16
2024-03-07T11:10:39.826Z,102540.38
2024-03-07T11:13:14.116Z,102546.44
2024-03-07T11:15:48.363Z,102543.84
2024-03-07T11:18:17.379Z,102549.06
2024-03-07T11:20:48.018Z,102546.44
2024-03-07T11:23:39.875Z,102543.84
2024-03-07T11:26:15.329Z,102536.88
2024-03-07T11:28:44.975Z,102536.88
2024-03-07T11:31:28.667Z,102542.94
2024-03-07T11:34:31.894Z,102533.41
2024-03-07T11:37:01.431Z,102523.84
2024-03-07T11:39:49.344Z,102522.97
2024-03-07T11:42:37.000Z,102531.66
2024-03-07T11:45:08.096Z,102532.50
2024-03-07T11:47:42.764Z,102497.72
2024-03-07T11:50:13.383Z,102505.50
2024-03-07T11:52:45.937Z,102495.94
2024-03-07T11:55:15.202Z,102494.19
2024-03-07T11:57:45.941Z,102482.88
2024-03-07T12:00:17.533Z,102488.94
2024-03-07T12:02:46.061Z,102479.31
2024-03-07T12:05:17.530Z,102472.41
2024-03-07T12:07:46.204Z,102469.78
2024-03-07T12:10:14.619Z,102472.41
2024-03-07T12:12:43.224Z,102465.34
2024-03-07T12:15:20.849Z,102467.97
2024-03-07T12:17:51.000Z,102459.25
2024-03-07T12:20:32.099Z,102447.91
2024-03-07T12:23:04.856Z,102445.34
2024-03-07T12:25:34.428Z,102451.41
2024-03-07T12:28:18.448Z,102449.63
2024-03-07T12:30:54.134Z,102456.53
2024-03-07T12:33:26.728Z,102453.97
2024-03-07T12:36:02.544Z,102458.22
2024-03-07T12:38:37.264Z,102457.28
2024-03-07T12:41:15.381Z,102451.06
2024-03-07T12:43:49.500Z,102438.06
2024-03-07T12:46:19.701Z,102432.94
2024-03-07T12:48:50.838Z,102430.25
2024-03-07T12:51:21.639Z,102436.41
2024-03-07T12:53:51.725Z,102428.56
2024-03-07T12:56:21.217Z,102430.38
2024-03-07T12:58:51.739Z,102425.97
2024-03-07T13:01:22.361Z,102443.38
2024-03-07T13:03:51.459Z,102425.97
2024-03-07T13:06:27.353Z,102437.38
2024-03-07T13:08:57.841Z,102435.69
2024-03-07T13:11:29.053Z,102431.31
2024-03-07T13:13:58.074Z,102435.63
2024-03-07T13:16:32.789Z,102439.13
2024-03-07T13:19:02.509Z,102439.09
2024-03-07T13:21:32.146Z,102428.63
2024-03-07T13:24:01.707Z,102420.00
2024-03-07T13:26:33.458Z,102426.06
2024-03-07T13:29:04.020Z,102422.50
2024-03-07T13:31:32.417Z,102431.28
2024-03-07T13:34:03.489Z,102435.56
2024-03-07T13:36:32.123Z,102431.09
2024-03-07T13:39:00.575Z,102419.84
2024-03-07T13:41:29.956Z,102428.59
2024-03-07T13:44:01.116Z,102420.78
2024-03-07T13:46:30.275Z,102421.66
2024-03-07T13:49:08.688Z,102431.19
2024-03-07T13:51:40.367Z,102434.63
2024-03-07T13:54:27.783Z,102412.03
2024-03-07T13:57:11.780Z,102425.00
2024-03-07T14:00:16.741Z,102408.47
2024-03-07T14:03:21.373Z,102401.44
2024-03-07T14:06:08.296Z,102405.72
2024-03-07T14:09:09.575Z,102403.06
2024-03-07T14:12:04.339Z,102396.13
2024-03-07T14:16:02.125Z,102383.78
2024-03-07T14:22:13.712Z,102363.03
2024-03-07T14:25:17.790Z,102378.63
2024-03-07T14:28:48.053Z,102378.75
2024-03-07T14:31:16.031Z,102383.06
2024-03-07T14:34:45.288Z,102376.84
2024-03-07T14:37:27.990Z,102366.31
2024-03-07T14:40:12.929Z,102350.69
2024-03-07T14:42:51.339Z,102349.03
2024-03-07T14:45:28.274Z,102342.13
2024-03-07T14:47:57.389Z,102339.50
2024-03-07T14:50:30.337Z,102332.44
2024-03-07T14:52:59.088Z,102328.72
2024-03-07T14:55:27.868Z,102327.72
2024-03-07T14:57:56.251Z,102327.59
2024-03-07T15:00:34.175Z,102315.03
2024-03-07T15:03:07.945Z,102302.53
2024-03-07T15:05:36.306Z,102297.44
2024-03-07T15:08:05.819Z,102282.56
2024-03-07T15:10:38.049Z,102286.22
2024-03-07T15:13:06.718Z,102277.72
2024-03-07T15:15:36.990Z,102271.66
2024-03-07T15:18:05.484Z,102268.25
2024-03-07T15:20:33.709Z,102272.66
2024-03-07T15:23:04.252Z,102263.00
2024-03-07T15:25:33.620Z,102266.56
2024-03-07T15:28:02.651Z,102265.59
2024-03-07T15:30:34.168Z,102260.22
2024-03-07T15:33:02.307Z,102270.69
2024-03-07T15:35:31.914Z,102265.16
2024-03-07T15:38:01.007Z,102254.69
2024-03-07T15:40:30.046Z,102251.28
2024-03-07T15:42:59.277Z,102258.25
2024-03-07T15:45:29.335Z,102259.88
2024-03-07T15:48:06.436Z,102257.22
2024-03-07T15:50:34.750Z,102253.00
2024-03-07T15:53:03.037Z,102251.16
2024-03-07T15:55:33.059Z,102251.13
2024-03-07T15:58:08.087Z,102248.81
2024-03-07T16:00:39.170Z,102244.25
2024-03-07T16:03:11.673Z,102233.22
2024-03-07T16:08:14.550Z,102241.28
2024-03-07T16:10:43.690Z,102235.34
2024-03-07T16:13:16.058Z,102231.16
2024-03-07T16:15:47.238Z,102236.81
2024-03-07T16:18:17.440Z,102238.94
2024-03-07T16:20:48.768Z,102237.38
2024-03-07T16:23:18.050Z,102238.44
2024-03-07T16:25:48.134Z,102237.72
2024-03-07T16:28:22.113Z,102246.44
2024-03-07T16:30:50.149Z,102236.97
2024-03-07T16:33:19.499Z,102247.47
2024-03-07T16:35:48.366Z,102250.22
2024-03-07T16:38:17.416Z,102245.97
2024-03-07T16:40:46.489Z,102253.00
2024-03-07T16:43:15.708Z,102260.06
2024-03-07T16:45:46.710Z,102261.88
2024-03-07T16:48:17.378Z,102266.28
2024-03-07T16:50:45.867Z,102266.38
2024-03-07T16:53:17.947Z,102270.78
2024-03-07T16:55:49.310Z,102278.69
2024-03-07T16:58:18.696Z,102276.16
2024-03-07T17:00:47.124Z,102272.75
2024-03-07T17:03:16.566Z,102277.94
2024-03-07T17:05:46.152Z,102285.88
2024-03-07T17:08:19.137Z,102294.59
2024-03-07T17:10:47.625Z,102299.88
2024-03-07T17:13:16.929Z,102302.47
2024-03-07T17:15:47.770Z,102304.25
2024-03-07T17:18:17.882Z,102307.72
2024-03-07T17:20:47.893Z,102311.22
2024-03-07T17:23:18.582Z,102312.94
2024-03-07T17:25:47.950Z,102317.31
2024-03-07T17:28:18.169Z,102313.00
2024-03-07T17:30:46.736Z,102323.41
2024-03-07T17:33:17.244Z,102306.94
2024-03-07T17:35:46.152Z,102313.00
2024-03-07T17:38:15.508Z,102317.34
2024-03-07T17:40:44.735Z,102318.22
2024-03-07T17:43:13.886Z,102326.91
2024-03-07T17:45:42.562Z,102333.84
2024-03-07T17:48:11.949Z,102333.88
2024-03-07T17:50:40.386Z,102330.38
2024-03-07T17:53:11.940Z,102323.47
2024-03-07T17:55:46.075Z,102320.84
2024-03-07T17:58:16.419Z,102320.00
2024-03-07T18:00:47.285Z,102316.53
2024-03-07T18:03:18.621Z,102324.34
2024-03-07T18:05:51.434Z,102327.78
2024-03-07T18:08:34.524Z,102323.47
2024-03-07T18:11:15.248Z,102335.59
2024-03-07T18:13:44.993Z,102346.00
2024-03-07T18:16:15.778Z,102344.25
2024-03-07T18:18:47.486Z,102338.19
2024-03-07T18:21:16.452Z,102342.53
2024-03-07T18:23:46.836Z,102338.16
2024-03-07T18:26:15.477Z,102337.28
2024-03-07T18:28:46.288Z,102339.00
2024-03-07T18:31:19.132Z,102340.72
2024-03-07T18:33:47.517Z,102346.78
2024-03-07T18:36:16.100Z,102340.69
2024-03-07T18:38:46.956Z,102333.75
2024-03-07T18:41:14.964Z,102345.00
2024-03-07T18:43:43.360Z,102341.53
2024-03-07T18:46:12.350Z,102340.66
2024-03-07T18:48:41.148Z,102338.88
2024-03-07T18:51:10.767Z,102343.19
2024-03-07T18:53:40.582Z,102345.81
2024-03-07T18:56:12.525Z,102359.66
2024-03-07T18:58:40.861Z,102362.25
2024-03-07T19:01:08.762Z,102363.97
2024-03-07T19:03:37.160Z,102356.16
2024-03-07T19:06:10.445Z,102358.75
2024-03-07T19:08:39.257Z,102368.22
2024-03-07T19:11:08.213Z,102363.03
2024-03-07T19:13:37.454Z,102358.66
2024-03-07T19:16:10.263Z,102362.13
2024-03-07T19:18:38.863Z,102365.59
2024-03-07T19:21:11.670Z,102362.13
2024-03-07T19:23:46.538Z,102357.81
2024-03-07T19:26:22.190Z,102357.78
2024-03-07T19:28:50.595Z,102354.34
2024-03-07T19:31:18.587Z,102351.69
2024-03-07T19:33:47.482Z,102350.81
2024-03-07T19:36:16.202Z,102346.50
2024-03-07T19:38:49.089Z,102350.78
2024-03-07T19:41:18.028Z,102345.53
2024-03-07T19:43:46.405Z,102349.00
2024-03-07T19:46:14.802Z,102355.06
2024-03-07T19:48:45.103Z,102351.59
2024-03-07T19:51:15.129Z,102349.00
2024-03-07T19:53:45.719Z,102352.44
2024-03-07T19:56:22.483Z,102357.63
2024-03-07T19:58:50.685Z,102354.16
2024-03-07T20:01:18.831Z,102360.22
2024-03-07T20:03:47.660Z,102362.81
2024-03-07T20:06:16.454Z,102361.06
2024-03-07T20:08:45.475Z,102355.88
2024-03-07T20:11:15.258Z,102355.88
2024-03-07T20:13:45.076Z,102352.41
2024-03-07T20:16:14.403Z,102355.84
2024-03-07T20:18:45.323Z,102354.97
2024-03-07T20:21:13.559Z,102354.03
2024-03-07T20:23:42.335Z,102360.06
2024-03-07T20:26:10.545Z,102367.84
2024-03-07T20:28:39.364Z,102366.09
2024-03-07T20:31:09.463Z,102379.94
2024-03-07T20:33:38.324Z,102376.50
2024-03-07T20:36:09.939Z,102373.03
2024-03-07T20:38:39.420Z,102373.03
2024-03-07T20:41:08.007Z,102374.75
2024-03-07T20:43:36.227Z,102366.03
2024-03-07T20:46:07.015Z,102365.19
2024-03-07T20:48:37.622Z,102364.31
2024-03-07T20:51:07.565Z,102362.59
2024-03-07T20:53:35.887Z,102360.81
2024-03-07T20:56:07.703Z,102361.72
2024-03-07T20:58:37.145Z,102372.09
2024-03-07T21:01:09.832Z,102354.69
2024-03-07T21:03:42.670Z,102357.25
2024-03-07T21:06:11.572Z,102372.81
2024-03-07T21:08:41.127Z,102364.09
2024-03-07T21:11:10.328Z,102367.53
2024-03-07T21:13:41.486Z,102363.16
2024-03-07T21:16:12.623Z,102370.91
2024-03-07T21:18:41.035Z,102367.50
2024-03-07T21:21:09.591Z,102358.88
2024-03-07T21:23:41.865Z,102364.81
2024-03-07T21:26:13.463Z,102357.00
2024-03-07T21:28:42.099Z,102362.19
2024-03-07T21:31:10.600Z,102371.63
2024-03-07T21:33:41.996Z,102366.44
2024-03-07T21:36:16.795Z,102370.81
2024-03-07T21:38:45.122Z,102365.59
2024-03-07T21:41:15.385Z,102369.06
2024-03-07T21:43:43.626Z,102367.31
2024-03-07T21:46:14.962Z,102363.03
2024-03-07T21:48:44.737Z,102362.13
2024-03-07T21:51:13.369Z,102358.63
2024-03-07T21:53:42.389Z,102355.19
2024-03-07T21:56:10.839Z,102356.88
2024-03-07T21:58:39.301Z,102351.63
2024-03-07T22:01:10.194Z,102355.06
2024-03-07T22:03:41.175Z,102351.66
2024-03-07T22:06:10.288Z,102353.38
2024-03-07T22:08:38.248Z,102352.47
2024-03-07T22:11:09.671Z,102351.59
2024-03-07T22:13:37.916Z,102352.47
2024-03-07T22:16:07.610Z,102358.56
2024-03-07T22:18:35.798Z,102355.09
2024-03-07T22:21:04.958Z,102349.84
2024-03-07T22:23:34.350Z,102344.63
2024-03-07T22:26:03.150Z,102351.44
2024-03-07T22:28:31.194Z,102347.94
2024-03-07T22:31:00.851Z,102346.25
2024-03-07T22:33:32.272Z,102345.34
2024-03-07T22:36:01.295Z,102347.06
2024-03-07T22:38:34.719Z,102345.28
2024-03-07T22:41:03.396Z,102348.69
2024-03-07T22:43:33.657Z,102346.16
2024-03-07T22:46:01.747Z,102335.75
2024-03-07T22:48:35.424Z,102346.94
2024-03-07T22:51:07.348Z,102338.31
2024-03-07T22:53:35.820Z,102334.84
2024-03-07T22:56:06.214Z,102332.25
2024-03-07T22:58:34.683Z,102326.16
2024-03-07T23:01:07.667Z,102320.88
2024-03-07T23:03:35.680Z,102320.00
2024-03-07T23:06:04.407Z,102318.22
2024-03-07T23:08:32.632Z,102314.75
2024-03-07T23:11:00.990Z,102313.03
2024-03-07T23:13:29.503Z,102319.09
2024-03-07T23:15:57.878Z,102314.75
2024-03-07T23:18:26.981Z,102314.78
2024-03-07T23:20:55.783Z,102320.81
2024-03-07T23:23:24.538Z,102318.19
2024-03-07T23:25:52.871Z,102314.75
2024-03-07T23:28:21.161Z,102307.78
2024-03-07T23:30:49.784Z,102301.75
2024-03-07T23:33:18.244Z,102300.00
2024-03-07T23:35:47.380Z,102302.50
2024-03-07T23:38:18.473Z,102296.47
2024-03-07T23:40:47.318Z,102298.25
2024-03-07T23:43:15.455Z,102299.13
2024-03-07T23:45:43.811Z,102293.03
2024-03-07T23:48:13.060Z,102292.16
2024-03-07T23:50:42.031Z,102293.03
2024-03-07T23:53:10.258Z,102287.81
2024-03-07T23:55:38.199Z,102281.75
2024-03-07T23:58:07.037Z,102289.53
